Terminal Aerodrome Forecast
Issued by NWS

Home | Current Version | Previous Version | Text Only | Print | Product List | Glossary On
Versions: 1 2 3 4 5 6 7 8 9 10 11 12 13 14 15 16 17 18 19 20 21 22 23 24 25 26 27 28 29 30 31
951
FTUS44 KEWX 271930 AAB
TAFSSF
TAF AMD
KSSF 271930Z 2720/2818 15007KT P6SM SCT026 BKN035
     FM280300 14005KT P6SM OVC015
     FM280900 14005KT 1SM BR OVC006
     FM281600 15008KT P6SM OVC012=

USA.gov is the U.S. government's official web portal to all federal, state and local government web resources and services.